createdAt,value
2019-04-05T00:03:55.378Z,33.53
2019-04-05T00:13:57.749Z,35.17
2019-04-05T00:23:59.799Z,35.30
2019-04-05T00:34:01.785Z,32.60
2019-04-05T00:44:04.065Z,33.88
2019-04-05T00:54:06.066Z,34.23
2019-04-05T01:04:08.135Z,35.15
2019-04-05T01:14:10.945Z,34.77
2019-04-05T01:24:13.544Z,37.75
2019-04-05T01:34:15.587Z,37.17
2019-04-05T01:44:18.209Z,37.50
2019-04-05T01:54:20.241Z,36.30
2019-04-05T02:04:22.523Z,34.35
2019-04-05T02:14:24.601Z,34.47
2019-04-05T02:24:26.665Z,33.90
2019-04-05T02:34:28.946Z,35.85
2019-04-05T02:44:32.426Z,32.57
2019-04-05T02:54:35.616Z,33.88
2019-04-05T03:04:37.826Z,31.00
2019-04-05T03:14:40.865Z,32.70
2019-04-05T03:34:46.548Z,33.88
2019-04-05T03:44:49.609Z,37.90
2019-04-05T04:04:55.684Z,35.00
2019-04-05T04:14:57.894Z,33.25
2019-04-05T04:25:00.053Z,37.03
2019-04-05T04:35:02.245Z,39.57
2019-04-05T04:45:12.080Z,41.93
2019-04-05T04:55:08.790Z,41.33
2019-04-05T05:05:11.362Z,42.37
2019-04-05T05:15:13.439Z,39.57
2019-04-05T05:25:16.641Z,36.70
2019-04-05T05:35:18.699Z,36.70
2019-04-05T05:45:20.689Z,36.07
2019-04-05T05:55:22.686Z,30.62
2019-04-05T06:05:24.905Z,27.30
2019-04-05T06:15:26.924Z,25.97
2019-04-05T06:25:28.903Z,27.80
2019-04-05T06:35:30.880Z,28.73
2019-04-05T06:45:32.970Z,27.60
2019-04-05T06:55:38.609Z,29.00
2019-04-05T07:05:40.986Z,26.20
2019-04-05T07:15:42.986Z,22.53
2019-04-05T07:25:45.401Z,20.57
2019-04-05T07:35:47.355Z,19.93
2019-04-05T07:45:49.472Z,17.50
2019-04-05T07:55:52.859Z,13.30
2019-04-05T08:05:55.043Z,11.53
2019-04-05T08:16:01.137Z,12.20
2019-04-05T08:26:02.492Z,15.58
2019-04-05T08:36:04.489Z,14.87
2019-04-05T08:46:06.803Z,12.97
2019-04-05T08:56:08.799Z,12.43
2019-04-05T09:06:11.067Z,13.50
2019-04-05T09:16:13.324Z,11.27
2019-04-05T09:26:15.299Z,10.00
2019-04-05T09:36:17.659Z,10.87
2019-04-05T09:46:19.701Z,11.50
2019-04-05T09:56:21.750Z,12.70
2019-04-05T10:06:23.754Z,14.27
2019-04-05T10:16:25.853Z,16.53
2019-04-05T10:26:27.853Z,16.17
2019-04-05T10:36:29.895Z,18.90
2019-04-05T10:46:32.191Z,17.53
2019-04-05T10:56:34.210Z,16.73
2019-04-05T11:06:36.552Z,16.07
2019-04-05T11:16:40.296Z,14.70
2019-04-05T11:26:42.285Z,13.90
2019-04-05T11:36:44.837Z,15.10
2019-04-05T11:46:49.156Z,14.33
2019-04-05T11:56:50.872Z,14.43
2019-04-05T12:06:53.049Z,13.40
2019-04-05T12:16:55.196Z,11.95
2019-04-05T12:26:57.153Z,10.50
2019-04-05T12:36:59.185Z,12.13
2019-04-05T12:47:02.878Z,12.23
2019-04-05T12:57:04.891Z,12.78
2019-04-05T13:07:07.040Z,16.67
2019-04-05T13:17:10.263Z,15.87
2019-04-05T13:27:12.518Z,16.27
2019-04-05T13:37:20.189Z,16.13
2019-04-05T13:47:18.310Z,22.32
2019-04-05T13:57:20.592Z,15.90
2019-04-05T14:07:24.499Z,17.07
2019-04-05T14:17:26.635Z,16.02
2019-04-05T14:27:28.843Z,16.63
2019-04-05T14:37:30.824Z,26.53
2019-04-05T14:47:32.906Z,28.33
2019-04-05T15:06:00.222Z,18.52
2019-04-05T15:16:02.593Z,22.70
2019-04-05T15:26:04.715Z,25.57
2019-04-05T15:36:06.745Z,27.43
2019-04-05T15:46:08.728Z,29.07
2019-04-05T15:56:10.912Z,25.93
2019-04-05T16:06:13.009Z,28.23
2019-04-05T16:16:14.971Z,31.30
2019-04-05T16:26:16.989Z,33.73
2019-04-05T16:36:18.952Z,34.17
2019-04-05T16:46:20.904Z,42.93
2019-04-05T16:56:23.000Z,41.37
2019-04-05T17:06:24.978Z,47.50
2019-04-05T17:16:26.992Z,47.07
2019-04-05T17:26:28.928Z,44.20
2019-04-05T17:36:30.995Z,38.65
2019-04-05T17:46:35.023Z,37.63
2019-04-05T17:56:37.035Z,31.15
2019-04-05T18:06:39.139Z,40.30
2019-04-05T18:16:41.182Z,31.87
2019-04-05T18:26:44.714Z,42.93
2019-04-05T18:36:46.673Z,50.40
2019-04-05T18:46:48.622Z,33.10
2019-04-05T18:56:50.700Z,29.75
2019-04-05T19:06:52.736Z,28.90
2019-04-05T19:16:54.885Z,29.37
2019-04-05T19:26:56.808Z,29.07
2019-04-05T19:57:06.498Z,28.95
2019-04-05T20:07:08.591Z,28.93
2019-04-05T20:17:10.587Z,30.50
2019-04-05T20:27:14.955Z,26.77
2019-04-05T20:37:16.942Z,29.27
2019-04-05T20:47:19.015Z,29.90
2019-04-05T20:57:21.093Z,27.37
2019-04-05T21:07:23.091Z,30.67
2019-04-05T21:17:25.061Z,27.90
2019-04-05T21:27:27.137Z,30.75
2019-04-05T21:37:29.271Z,29.87
2019-04-05T21:47:31.476Z,30.73
2019-04-05T21:57:33.433Z,30.50
2019-04-05T22:07:35.417Z,31.37
2019-04-05T22:17:37.484Z,32.40
2019-04-05T22:27:39.453Z,29.00
2019-04-05T22:37:41.522Z,30.37
2019-04-05T22:47:44.416Z,30.40
2019-04-05T22:57:46.622Z,28.98
2019-04-05T23:07:48.737Z,30.80
2019-04-05T23:17:50.699Z,28.80
2019-04-05T23:27:52.745Z,30.40
2019-04-05T23:37:54.727Z,30.20
2019-04-05T23:47:56.845Z,30.70
2019-04-05T23:57:59.702Z,30.47
